createdAt,value
2017-11-15T00:01:13.426Z,47.55
2017-11-15T00:03:47.845Z,36.75
2017-11-15T00:06:22.308Z,57.58
2017-11-15T00:08:56.661Z,34.40
2017-11-15T00:11:31.100Z,36.90
2017-11-15T00:14:05.532Z,28.10
2017-11-15T00:16:40.011Z,44.05
2017-11-15T00:19:17.367Z,44.30
2017-11-15T00:21:51.903Z,38.95
2017-11-15T00:24:26.429Z,35.00
2017-11-15T00:27:00.776Z,36.35
2017-11-15T00:29:36.013Z,43.90
2017-11-15T00:32:10.491Z,32.40
2017-11-15T00:34:45.505Z,47.33
2017-11-15T00:37:19.815Z,46.92
2017-11-15T00:39:54.251Z,48.45
2017-11-15T00:42:28.809Z,22.67
2017-11-15T00:45:03.192Z,38.42
2017-11-15T00:47:37.563Z,42.80
2017-11-15T00:50:12.031Z,50.85
2017-11-15T00:52:46.551Z,38.95
2017-11-15T00:55:20.969Z,44.33
2017-11-15T00:57:55.413Z,32.35
2017-11-15T01:00:29.851Z,28.02
2017-11-15T01:03:04.338Z,33.75
2017-11-15T01:05:38.622Z,31.10
2017-11-15T01:08:12.958Z,24.55
2017-11-15T01:10:47.407Z,43.53
2017-11-15T01:13:21.741Z,32.60
2017-11-15T01:15:56.191Z,39.25
2017-11-15T01:18:30.529Z,41.05
2017-11-15T01:21:04.957Z,47.60
2017-11-15T01:23:40.829Z,44.28
2017-11-15T01:26:15.261Z,32.28
2017-11-15T01:28:49.704Z,41.10
2017-11-15T01:31:24.142Z,30.50
2017-11-15T01:33:58.475Z,32.97
2017-11-15T01:36:32.849Z,41.22
2017-11-15T01:39:07.281Z,46.53
2017-11-15T01:41:42.694Z,40.92
2017-11-15T01:44:17.166Z,28.17
2017-11-15T01:46:51.618Z,34.38
2017-11-15T01:49:26.955Z,38.83
2017-11-15T01:52:01.321Z,47.85
2017-11-15T01:54:35.748Z,31.02
2017-11-15T01:57:10.075Z,33.55
2017-11-15T01:59:44.550Z,45.90
2017-11-15T02:02:18.909Z,43.63
2017-11-15T02:04:53.296Z,50.35
2017-11-15T02:07:27.782Z,33.53
2017-11-15T02:10:02.872Z,20.27
2017-11-15T02:12:37.197Z,41.20
2017-11-15T02:15:11.648Z,57.70
2017-11-15T02:17:46.079Z,36.85
2017-11-15T02:20:20.465Z,30.37
2017-11-15T02:22:54.854Z,42.20
2017-11-15T02:25:29.352Z,41.47
2017-11-15T02:28:03.680Z,46.20
2017-11-15T02:30:38.123Z,43.60
2017-11-15T02:33:12.468Z,34.53
2017-11-15T02:35:46.820Z,37.72
2017-11-15T02:38:21.353Z,35.00
2017-11-15T02:40:55.840Z,30.23
2017-11-15T02:43:30.369Z,33.72
2017-11-15T02:46:04.916Z,34.67
2017-11-15T02:48:39.427Z,26.62
2017-11-15T02:51:13.873Z,27.75
2017-11-15T02:53:48.425Z,26.73
2017-11-15T02:56:22.925Z,58.67
2017-11-15T02:58:57.236Z,46.00
2017-11-15T03:01:31.674Z,45.60
2017-11-15T03:04:06.185Z,42.22
2017-11-15T03:06:40.567Z,44.72
2017-11-15T03:09:15.167Z,59.42
2017-11-15T03:11:49.730Z,35.60
2017-11-15T03:14:24.063Z,31.00
2017-11-15T03:16:58.420Z,47.72
2017-11-15T03:19:32.914Z,53.70
2017-11-15T03:22:07.361Z,53.22
2017-11-15T03:24:42.461Z,33.28
2017-11-15T03:27:16.849Z,57.50
2017-11-15T03:29:51.256Z,46.90
2017-11-15T03:32:25.672Z,50.72
2017-11-15T03:35:00.135Z,38.35
2017-11-15T03:37:34.569Z,43.60
2017-11-15T03:40:09.022Z,48.63
2017-11-15T03:42:43.352Z,50.15
2017-11-15T03:45:18.501Z,46.10
2017-11-15T03:47:52.825Z,48.42
2017-11-15T03:50:27.320Z,38.60
2017-11-15T03:53:01.759Z,50.30
2017-11-15T03:55:36.258Z,28.62
2017-11-15T03:58:10.740Z,56.42
2017-11-15T04:00:45.265Z,52.67
2017-11-15T04:03:19.675Z,48.22
2017-11-15T04:05:54.024Z,53.65
2017-11-15T04:08:28.484Z,43.15
2017-11-15T04:11:03.942Z,48.15
2017-11-15T04:13:38.360Z,45.97
2017-11-15T04:16:12.686Z,52.20
2017-11-15T04:18:47.116Z,42.42
2017-11-15T04:21:21.525Z,33.40
2017-11-15T04:23:55.894Z,57.65
2017-11-15T04:26:30.281Z,66.12
2017-11-15T04:29:04.560Z,35.50
2017-11-15T04:31:38.942Z,48.30
2017-11-15T04:34:13.361Z,39.78
2017-11-15T04:36:48.617Z,41.83
2017-11-15T04:39:23.156Z,43.00
2017-11-15T04:41:57.523Z,54.53
2017-11-15T04:44:32.041Z,51.05
2017-11-15T04:47:06.404Z,54.72
2017-11-15T04:49:40.864Z,47.88
2017-11-15T04:52:15.453Z,44.55
2017-11-15T04:54:49.922Z,42.60
2017-11-15T04:57:25.188Z,34.17
2017-11-15T05:00:00.398Z,40.72
2017-11-15T05:02:34.964Z,39.60
2017-11-15T05:05:09.410Z,29.75
2017-11-15T05:07:44.857Z,29.73
2017-11-15T05:10:19.317Z,38.47
2017-11-15T05:12:53.769Z,35.42
2017-11-15T05:15:28.824Z,34.95
2017-11-15T05:18:03.230Z,34.47
2017-11-15T05:20:37.656Z,34.55
2017-11-15T05:23:12.109Z,35.55
2017-11-15T05:25:46.554Z,31.52
2017-11-15T05:28:21.040Z,32.58
2017-11-15T05:30:55.416Z,25.60
2017-11-15T05:33:29.839Z,24.23
2017-11-15T05:36:04.310Z,26.62
2017-11-15T05:38:38.747Z,19.10
2017-11-15T05:41:13.100Z,28.27
2017-11-15T05:43:47.621Z,18.52
2017-11-15T05:46:22.109Z,20.33
2017-11-15T05:48:56.552Z,24.00
2017-11-15T05:51:30.917Z,26.60
2017-11-15T05:54:05.384Z,19.73
2017-11-15T05:56:39.882Z,16.15
2017-11-15T05:59:14.323Z,21.02
2017-11-15T06:01:48.858Z,19.52
2017-11-15T06:04:23.188Z,17.77
2017-11-15T06:06:57.653Z,22.83
2017-11-15T06:09:32.989Z,15.70
2017-11-15T06:12:07.288Z,15.07
2017-11-15T06:14:41.823Z,15.20
2017-11-15T06:17:16.237Z,15.90
2017-11-15T06:19:50.546Z,11.88
2017-11-15T06:22:25.693Z,11.98
2017-11-15T06:25:00.173Z,15.32
2017-11-15T06:27:34.611Z,13.38
2017-11-15T06:30:09.085Z,13.25
2017-11-15T06:32:43.448Z,14.70
2017-11-15T06:35:17.978Z,11.95
2017-11-15T06:37:52.419Z,12.00
2017-11-15T06:40:26.946Z,12.32
2017-11-15T06:43:01.351Z,9.50
2017-11-15T06:45:35.751Z,12.93
2017-11-15T06:48:10.153Z,10.57
2017-11-15T06:50:44.626Z,9.88
2017-11-15T06:53:19.143Z,13.35
2017-11-15T06:55:53.569Z,8.77
2017-11-15T06:58:28.064Z,9.30
2017-11-15T07:01:02.505Z,8.27
2017-11-15T07:03:37.041Z,8.57
2017-11-15T07:06:11.452Z,8.50
2017-11-15T07:08:45.988Z,12.15
2017-11-15T07:11:20.302Z,7.82
2017-11-15T07:13:55.516Z,8.85
2017-11-15T07:16:29.796Z,8.10
2017-11-15T07:19:04.151Z,9.40
2017-11-15T07:21:40.679Z,7.68
2017-11-15T07:24:15.032Z,4.65
2017-11-15T07:26:50.282Z,11.27
2017-11-15T07:29:24.674Z,7.45
2017-11-15T07:31:59.142Z,8.73
2017-11-15T07:34:34.370Z,7.50
2017-11-15T07:37:08.819Z,8.35
2017-11-15T07:39:43.349Z,13.43
2017-11-15T07:42:18.466Z,9.50
2017-11-15T07:44:52.907Z,9.65
2017-11-15T07:47:27.266Z,12.50
2017-11-15T07:50:01.725Z,11.93
2017-11-15T07:52:37.201Z,14.35
2017-11-15T07:55:11.541Z,14.75
2017-11-15T07:57:46.038Z,12.48
2017-11-15T08:00:20.484Z,33.88
2017-11-15T08:02:54.931Z,23.52
2017-11-15T08:05:29.428Z,24.02
2017-11-15T08:08:03.895Z,21.90
2017-11-15T08:10:38.415Z,31.98
2017-11-15T08:13:12.873Z,18.80
2017-11-15T08:15:47.292Z,32.58
2017-11-15T08:18:21.866Z,28.17
2017-11-15T08:20:56.309Z,28.25
2017-11-15T08:23:30.612Z,30.08
2017-11-15T08:26:05.069Z,29.90
2017-11-15T08:28:39.500Z,25.20
2017-11-15T08:31:14.769Z,30.92
2017-11-15T08:33:49.301Z,26.17
2017-11-15T08:36:24.693Z,19.87
2017-11-15T08:39:00.992Z,15.27
2017-11-15T08:41:36.438Z,16.62
2017-11-15T08:44:10.840Z,31.58
2017-11-15T08:46:45.277Z,14.80
2017-11-15T08:49:20.528Z,28.67
2017-11-15T08:51:54.994Z,30.00
2017-11-15T08:54:29.441Z,26.20
2017-11-15T08:57:03.879Z,23.05
2017-11-15T08:59:38.316Z,26.00
2017-11-15T09:02:12.721Z,18.70
2017-11-15T09:04:47.049Z,18.40
2017-11-15T09:07:21.511Z,26.45
2017-11-15T09:09:56.796Z,28.83
2017-11-15T09:12:31.126Z,22.30
2017-11-15T09:15:05.544Z,25.88
2017-11-15T09:17:39.989Z,23.02
2017-11-15T09:20:14.404Z,33.17
2017-11-15T09:22:48.696Z,24.92
2017-11-15T09:25:23.057Z,30.85
2017-11-15T09:27:57.352Z,28.92
2017-11-15T09:30:32.641Z,34.63
2017-11-15T09:33:07.179Z,27.15
2017-11-15T09:35:41.627Z,23.42
2017-11-15T09:38:15.930Z,21.65
2017-11-15T09:40:51.665Z,25.65
2017-11-15T09:43:26.775Z,21.55
2017-11-15T09:46:01.165Z,22.42
2017-11-15T09:48:35.655Z,17.40
2017-11-15T09:51:10.004Z,23.80
2017-11-15T09:53:44.377Z,21.77
2017-11-15T09:56:18.807Z,21.70
2017-11-15T09:58:53.312Z,27.73
2017-11-15T10:01:27.784Z,23.45
2017-11-15T10:04:02.353Z,24.08
2017-11-15T10:06:38.023Z,19.85
2017-11-15T10:09:13.096Z,25.45
2017-11-15T10:11:48.180Z,30.15
2017-11-15T10:14:23.482Z,27.00
2017-11-15T10:17:05.634Z,26.40
2017-11-15T10:19:39.939Z,24.33
2017-11-15T10:22:14.383Z,29.63
2017-11-15T10:24:48.790Z,24.52
2017-11-15T10:27:23.344Z,30.48
2017-11-15T10:29:57.837Z,25.10
2017-11-15T10:32:32.301Z,30.52
2017-11-15T10:35:06.625Z,27.77
2017-11-15T10:37:41.035Z,34.90
2017-11-15T10:40:15.387Z,27.23
2017-11-15T10:42:49.681Z,29.37
2017-11-15T10:45:24.163Z,25.12
2017-11-15T10:47:58.676Z,24.17
2017-11-15T10:50:33.188Z,29.10
2017-11-15T10:53:07.601Z,29.10
2017-11-15T10:55:42.105Z,22.90
2017-11-15T10:58:16.536Z,29.15
2017-11-15T11:00:52.363Z,23.33
2017-11-15T11:03:26.909Z,22.00
2017-11-15T11:06:01.228Z,22.52
2017-11-15T11:08:35.681Z,23.75
2017-11-15T11:11:10.077Z,21.80
2017-11-15T11:13:44.527Z,21.17
2017-11-15T11:16:18.849Z,13.23
2017-11-15T11:18:53.201Z,19.98
2017-11-15T11:21:27.583Z,17.25
2017-11-15T11:24:02.036Z,17.87
2017-11-15T11:26:36.505Z,13.65
2017-11-15T11:29:10.839Z,16.37
2017-11-15T11:31:45.340Z,17.15
2017-11-15T11:34:19.777Z,15.93
2017-11-15T11:36:54.920Z,12.73
2017-11-15T11:39:29.389Z,17.05
2017-11-15T11:42:04.533Z,14.87
2017-11-15T11:44:38.857Z,16.08
2017-11-15T11:47:13.357Z,12.30
2017-11-15T11:49:47.790Z,16.23
2017-11-15T11:52:22.247Z,19.48
2017-11-15T11:54:56.702Z,12.57
2017-11-15T11:57:31.134Z,14.57
2017-11-15T12:00:05.570Z,14.48
2017-11-15T12:02:40.068Z,12.80
2017-11-15T12:05:14.625Z,14.10
2017-11-15T12:07:49.136Z,14.40
2017-11-15T12:10:23.719Z,13.02
2017-11-15T12:12:58.165Z,14.20
2017-11-15T12:15:32.505Z,13.68
2017-11-15T12:18:06.901Z,15.68
2017-11-15T12:20:41.392Z,12.82
2017-11-15T12:23:15.853Z,10.57
2017-11-15T12:25:50.315Z,10.98
2017-11-15T12:28:24.799Z,12.15
2017-11-15T12:30:59.218Z,12.00
2017-11-15T12:33:33.673Z,10.55
2017-11-15T12:36:08.105Z,11.45
2017-11-15T12:38:42.563Z,9.60
2017-11-15T12:41:16.960Z,13.90
2017-11-15T12:43:51.332Z,11.45
2017-11-15T12:46:26.445Z,11.50
2017-11-15T12:49:00.801Z,10.40
2017-11-15T12:51:35.290Z,10.50
2017-11-15T12:54:09.682Z,7.22
2017-11-15T12:56:43.961Z,8.63
2017-11-15T12:59:18.353Z,5.82
2017-11-15T13:01:53.448Z,8.48
2017-11-15T13:04:27.876Z,5.72
2017-11-15T13:07:02.240Z,6.62
2017-11-15T13:09:36.718Z,5.80
2017-11-15T13:12:11.275Z,6.90
2017-11-15T13:14:45.712Z,6.45
2017-11-15T13:17:20.166Z,6.60
2017-11-15T13:19:54.674Z,7.47
2017-11-15T13:22:29.012Z,7.22
2017-11-15T13:25:03.485Z,5.65
2017-11-15T13:27:37.873Z,6.15
2017-11-15T13:30:12.314Z,6.93
2017-11-15T13:32:46.692Z,5.50
2017-11-15T13:35:21.004Z,7.20
2017-11-15T13:37:55.546Z,6.15
2017-11-15T13:40:29.970Z,7.72
2017-11-15T13:43:05.202Z,6.35
2017-11-15T13:45:39.668Z,7.30
2017-11-15T13:48:14.091Z,12.30
2017-11-15T13:50:48.573Z,4.97
2017-11-15T13:53:23.763Z,4.70
2017-11-15T13:55:58.205Z,4.82
2017-11-15T13:58:33.469Z,6.12
2017-11-15T14:01:07.801Z,5.95
2017-11-15T14:03:43.043Z,6.90
2017-11-15T14:06:17.483Z,8.48
2017-11-15T14:08:52.798Z,4.15
2017-11-15T14:11:27.117Z,3.50
2017-11-15T14:14:02.326Z,3.47
2017-11-15T14:16:37.583Z,4.22
2017-11-15T14:19:12.092Z,1.75
2017-11-15T14:21:46.546Z,6.43
2017-11-15T14:24:20.976Z,5.20
2017-11-15T14:26:55.281Z,2.05
2017-11-15T14:29:30.358Z,3.55
2017-11-15T14:32:04.796Z,4.70
2017-11-15T14:34:39.095Z,4.95
2017-11-15T14:37:14.185Z,6.32
2017-11-15T14:39:48.509Z,4.75
2017-11-15T14:42:22.785Z,7.85
2017-11-15T14:44:57.269Z,4.68
2017-11-15T14:47:31.881Z,6.93
2017-11-15T14:50:06.353Z,9.13
2017-11-15T14:52:40.928Z,2.40
2017-11-15T14:55:15.304Z,3.90
2017-11-15T14:57:50.585Z,6.93
2017-11-15T15:00:24.961Z,6.22
2017-11-15T15:02:59.477Z,3.15
2017-11-15T15:05:34.059Z,6.95
2017-11-15T15:08:08.423Z,7.47
2017-11-15T15:10:42.908Z,6.47
2017-11-15T15:13:17.409Z,7.43
2017-11-15T15:15:51.968Z,7.68
2017-11-15T15:18:26.505Z,7.28
2017-11-15T15:21:00.969Z,6.18
2017-11-15T15:23:36.186Z,4.97
2017-11-15T15:26:11.068Z,2.62
2017-11-15T15:28:46.346Z,7.12
2017-11-15T15:31:31.480Z,7.65
2017-11-15T15:34:06.092Z,5.25
2017-11-15T15:36:45.671Z,6.80
2017-11-15T15:39:21.385Z,6.53
2017-11-15T15:41:55.705Z,10.65
2017-11-15T15:44:30.246Z,7.00
2017-11-15T15:47:04.662Z,9.65
2017-11-15T15:49:39.166Z,5.25
2017-11-15T15:52:13.680Z,6.28
2017-11-15T15:54:48.176Z,19.80
2017-11-15T15:57:22.601Z,9.02
2017-11-15T15:59:56.940Z,7.80
2017-11-15T16:02:31.397Z,8.05
2017-11-15T16:05:05.858Z,16.00
2017-11-15T16:07:40.347Z,14.85
2017-11-15T16:10:14.686Z,25.80
2017-11-15T16:12:49.192Z,15.27
2017-11-15T16:15:23.530Z,18.12
2017-11-15T16:17:57.992Z,9.63
2017-11-15T16:20:32.435Z,18.15
2017-11-15T16:23:07.029Z,13.18
2017-11-15T16:25:41.525Z,13.82
2017-11-15T16:28:15.995Z,12.30
2017-11-15T16:30:50.342Z,10.88
2017-11-15T16:33:24.628Z,9.25
2017-11-15T16:35:58.948Z,9.73
2017-11-15T16:38:34.181Z,13.15
2017-11-15T16:41:08.707Z,9.82
2017-11-15T16:43:43.109Z,11.12
2017-11-15T16:46:17.508Z,10.57
2017-11-15T16:48:51.861Z,9.20
2017-11-15T16:51:26.201Z,9.07
2017-11-15T16:54:00.653Z,14.45
2017-11-15T16:56:35.199Z,11.98
2017-11-15T16:59:09.668Z,11.50
2017-11-15T17:01:44.788Z,9.85
2017-11-15T17:04:20.017Z,8.85
2017-11-15T17:06:54.402Z,20.05
2017-11-15T17:09:28.774Z,21.98
2017-11-15T17:12:03.375Z,19.58
2017-11-15T17:14:37.856Z,23.40
2017-11-15T17:17:12.453Z,18.45
2017-11-15T17:19:47.000Z,19.75
2017-11-15T17:22:22.193Z,16.05
2017-11-15T17:24:56.619Z,19.58
2017-11-15T17:27:31.044Z,24.58
2017-11-15T17:30:05.515Z,21.45
2017-11-15T17:32:39.898Z,19.62
2017-11-15T17:35:14.376Z,22.48
2017-11-15T17:37:48.971Z,21.00
2017-11-15T17:40:23.458Z,13.98
2017-11-15T17:42:57.969Z,24.12
2017-11-15T17:45:33.174Z,24.98
2017-11-15T17:48:07.792Z,17.85
2017-11-15T17:50:42.255Z,19.08
2017-11-15T17:53:16.589Z,20.08
2017-11-15T17:55:51.103Z,23.42
2017-11-15T17:58:25.649Z,21.87
2017-11-15T18:01:00.208Z,16.92
2017-11-15T18:03:34.541Z,25.12
2017-11-15T18:06:09.755Z,24.20
2017-11-15T18:08:44.217Z,25.45
2017-11-15T18:11:18.563Z,25.35
2017-11-15T18:13:53.034Z,17.40
2017-11-15T18:16:27.475Z,23.90
2017-11-15T18:19:01.956Z,24.33
2017-11-15T18:21:37.189Z,22.37
2017-11-15T18:24:11.666Z,19.00
2017-11-15T18:26:46.164Z,25.05
2017-11-15T18:29:20.567Z,24.12
2017-11-15T18:31:54.973Z,26.73
2017-11-15T18:34:29.362Z,34.08
2017-11-15T18:37:03.755Z,34.00
2017-11-15T18:39:38.176Z,40.88
2017-11-15T18:42:12.668Z,27.90
2017-11-15T18:44:46.997Z,21.00
2017-11-15T18:47:22.616Z,25.70
2017-11-15T18:49:56.997Z,24.25
2017-11-15T18:52:31.540Z,28.05
2017-11-15T18:55:05.879Z,25.83
2017-11-15T18:57:40.204Z,22.50
2017-11-15T19:00:14.620Z,18.92
2017-11-15T19:02:49.076Z,21.08
2017-11-15T19:05:23.550Z,24.45
2017-11-15T19:07:57.996Z,21.87
2017-11-15T19:10:32.412Z,19.02
2017-11-15T19:13:06.972Z,21.52
2017-11-15T19:15:41.469Z,28.42
2017-11-15T19:18:16.067Z,22.05
2017-11-15T19:20:50.630Z,29.48
2017-11-15T19:23:24.972Z,20.40
2017-11-15T19:25:59.548Z,23.00
2017-11-15T19:28:34.828Z,17.90
2017-11-15T19:31:09.438Z,40.83
2017-11-15T19:33:43.870Z,32.22
2017-11-15T19:36:18.365Z,29.52
2017-11-15T19:38:52.793Z,22.77
2017-11-15T19:41:27.505Z,28.95
2017-11-15T19:44:03.447Z,25.45
2017-11-15T19:46:38.300Z,30.80
2017-11-15T19:49:14.441Z,30.02
2017-11-15T19:51:48.852Z,33.80
2017-11-15T19:54:24.085Z,18.60
2017-11-15T19:56:58.842Z,25.25
2017-11-15T19:59:33.637Z,26.85
2017-11-15T20:02:08.177Z,27.02
2017-11-15T20:04:43.402Z,25.20
2017-11-15T20:07:17.733Z,26.15
2017-11-15T20:09:52.326Z,25.73
2017-11-15T20:12:27.150Z,20.33
2017-11-15T20:15:01.726Z,16.73
2017-11-15T20:17:36.278Z,22.87
2017-11-15T20:20:10.969Z,17.45
2017-11-15T20:22:45.496Z,19.55
2017-11-15T20:28:24.575Z,13.48
2017-11-15T20:30:58.924Z,22.37
2017-11-15T20:33:33.655Z,17.95
2017-11-15T20:36:08.164Z,15.45
2017-11-15T20:38:43.420Z,17.30
2017-11-15T20:41:18.943Z,13.32
2017-11-15T20:43:53.694Z,15.45
2017-11-15T20:46:28.363Z,15.30
2017-11-15T20:49:02.741Z,15.75
2017-11-15T20:51:37.360Z,13.48
2017-11-15T20:54:12.580Z,25.23
2017-11-15T20:56:47.038Z,19.73
2017-11-15T20:59:21.435Z,37.25
2017-11-15T21:01:56.192Z,26.42
2017-11-15T21:04:30.703Z,23.65
2017-11-15T21:07:05.919Z,18.58
2017-11-15T21:09:40.436Z,21.08
2017-11-15T21:12:14.949Z,15.38
2017-11-15T21:14:49.396Z,15.90
2017-11-15T21:17:23.855Z,24.15
2017-11-15T21:19:58.313Z,16.83
2017-11-15T21:22:32.788Z,20.52
2017-11-15T21:25:07.228Z,18.98
2017-11-15T21:27:42.500Z,15.70
2017-11-15T21:30:17.016Z,17.23
2017-11-15T21:32:51.396Z,19.90
2017-11-15T21:35:25.900Z,17.52
2017-11-15T21:38:00.357Z,19.17
2017-11-15T21:40:34.708Z,21.75
2017-11-15T21:43:09.202Z,18.85
2017-11-15T21:45:43.618Z,23.75
2017-11-15T21:48:18.068Z,23.33
2017-11-15T21:50:52.609Z,23.90
2017-11-15T21:53:27.134Z,22.65
2017-11-15T21:56:01.577Z,23.10
2017-11-15T21:58:36.062Z,24.02
2017-11-15T22:01:11.330Z,21.10
2017-11-15T22:03:45.709Z,25.12
2017-11-15T22:06:20.011Z,22.90
2017-11-15T22:08:54.659Z,19.98
2017-11-15T22:11:29.157Z,24.80
2017-11-15T22:14:03.637Z,23.10
2017-11-15T22:16:38.140Z,25.15
2017-11-15T22:19:12.597Z,23.73
2017-11-15T22:21:47.118Z,29.05
2017-11-15T22:24:21.545Z,19.40
2017-11-15T22:26:55.953Z,32.85
2017-11-15T22:29:30.577Z,25.50
2017-11-15T22:32:05.145Z,56.30
2017-11-15T22:34:42.064Z,38.58
2017-11-15T22:37:16.583Z,57.40
2017-11-15T22:39:51.137Z,49.08
2017-11-15T22:42:25.522Z,46.03
2017-11-15T22:44:59.945Z,41.80
2017-11-15T22:47:34.393Z,30.58
2017-11-15T22:50:08.917Z,19.20
2017-11-15T22:52:43.399Z,30.85
2017-11-15T22:55:17.785Z,16.42
2017-11-15T22:57:52.276Z,28.85
2017-11-15T23:00:26.829Z,24.73
2017-11-15T23:03:01.149Z,35.20
2017-11-15T23:05:36.385Z,36.45
2017-11-15T23:08:10.929Z,24.77
2017-11-15T23:10:45.407Z,38.30
2017-11-15T23:13:20.049Z,37.20
2017-11-15T23:15:55.872Z,27.73
2017-11-15T23:18:31.117Z,26.83
2017-11-15T23:21:05.569Z,16.50
2017-11-15T23:23:40.066Z,22.02
2017-11-15T23:26:15.264Z,18.17
2017-11-15T23:28:50.532Z,21.62
2017-11-15T23:31:24.855Z,19.80
2017-11-15T23:33:59.276Z,37.75
2017-11-15T23:36:33.920Z,44.92
2017-11-15T23:39:08.389Z,36.50
2017-11-15T23:41:42.777Z,37.67
2017-11-15T23:44:17.129Z,60.10
2017-11-15T23:46:51.561Z,41.20
2017-11-15T23:49:25.959Z,19.58
2017-11-15T23:52:00.411Z,16.48
2017-11-15T23:54:34.905Z,13.70
2017-11-15T23:57:09.445Z,14.05
2017-11-15T23:59:44.597Z,16.65
